Time;durP1;ratioP1;P1;durP2;ratioP2;P2;SDS_P1;SDS_P2;PMS_P1;PMS_P2;Temp;Humidity;BMP_temperature;BMP_pressure;BME280_temperature;BME280_humidity;BME280_pressure;Samples;Min_cycle;Max_cycle;Signal;HPM_P1;HPM_P2
2021/03/30 00:00:51;;;;;;;0.77;0.50;;;;;;;9.54;83.39;102379.16;5075647;28;20461;-66
2021/03/30 00:03:17;;;;;;;0.53;0.53;;;;;;;9.44;83.97;102370.91;5075380;28;20866;-67
2021/03/30 00:05:43;;;;;;;0.60;0.40;;;;;;;9.42;84.43;102379.25;5075358;28;20468;-67
2021/03/30 00:08:10;;;;;;;0.40;0.30;;;;;;;9.41;84.86;102380.31;5074500;28;20477;-67
2021/03/30 00:10:39;;;;;;;0.80;0.40;;;;;;;9.39;84.89;102379.75;5074809;28;20441;-66
2021/03/30 00:13:05;;;;;;;0.40;0.30;;;;;;;9.37;85.34;102381.06;5075257;28;20836;-66
2021/03/30 00:15:32;;;;;;;0.70;0.63;;;;;;;9.28;85.69;102373.38;5075128;28;20446;-66
2021/03/30 00:17:58;;;;;;;0.40;0.30;;;;;;;9.35;84.56;102374.03;5074961;28;20942;-66
2021/03/30 00:20:25;;;;;;;0.50;0.50;;;;;;;9.37;83.99;102381.06;5074987;28;20448;-67
2021/03/30 00:22:51;;;;;;;2.30;0.50;;;;;;;9.29;83.85;102376.88;5075057;28;20433;-67
2021/03/30 00:25:17;;;;;;;0.60;0.60;;;;;;;9.23;83.32;102378.72;5074977;28;20494;-67
2021/03/30 00:27:44;;;;;;;0.57;0.50;;;;;;;9.17;82.83;102384.31;5074836;28;20485;-66
2021/03/30 00:30:11;;;;;;;0.50;0.40;;;;;;;9.12;82.43;102382.34;5075328;28;20441;-67
2021/03/30 00:32:38;;;;;;;1.67;1.17;;;;;;;9.12;82.69;102382.34;5075006;28;20465;-67
2021/03/30 00:35:05;;;;;;;0.50;0.43;;;;;;;9.10;81.70;102377.16;5075553;28;20443;-66
2021/03/30 00:37:32;;;;;;;0.40;0.30;;;;;;;9.03;82.06;102378.38;5074692;28;20453;-66
2021/03/30 00:39:57;;;;;;;1.07;0.80;;;;;;;8.99;81.94;102379.97;5075488;28;20464;-66
2021/03/30 00:42:25;;;;;;;9.03;0.70;;;;;;;8.93;82.58;102384.44;5075474;28;20977;-67
2021/03/30 00:44:51;;;;;;;1.10;1.00;;;;;;;8.89;84.17;102380.59;5075561;28;20453;-67
2021/03/30 00:47:19;;;;;;;0.50;0.40;;;;;;;8.87;85.24;102387.31;5075244;28;20450;-67
2021/03/30 00:49:46;;;;;;;0.40;0.30;;;;;;;8.82;86.18;102386.16;5075311;28;20442;-66
2021/03/30 00:52:12;;;;;;;1.80;0.40;;;;;;;8.84;86.17;102384.03;5074666;28;20986;-66
2021/03/30 00:54:39;;;;;;;0.50;0.40;;;;;;;8.77;86.65;102383.38;5074919;28;20480;-67
2021/03/30 00:57:06;;;;;;;0.50;0.50;;;;;;;8.70;87.52;102376.50;5074266;28;20441;-66
2021/03/30 00:59:33;;;;;;;0.50;0.30;;;;;;;8.78;86.92;102376.09;5073857;28;20433;-68
2021/03/30 01:02:00;;;;;;;0.83;0.70;;;;;;;8.77;86.66;102383.38;5074109;28;20465;-69
2021/03/30 01:04:26;;;;;;;0.70;0.70;;;;;;;8.71;86.90;102378.94;5074805;28;20437;-67
2021/03/30 01:06:52;;;;;;;0.50;0.50;;;;;;;8.71;86.25;102378.94;5075367;28;20491;-68
2021/03/30 01:09:30;;;;;;;0.50;0.30;;;;;;;8.69;86.13;102382.97;5075483;28;20481;-69
2021/03/30 01:12:11;;;;;;;1.63;1.53;;;;;;;8.73;84.07;102389.53;5075837;28;20476;-69
2021/03/30 01:14:47;;;;;;;0.40;0.40;;;;;;;8.61;83.51;102388.75;5075786;28;20474;-69
2021/03/30 01:17:23;;;;;;;0.57;0.37;;;;;;;8.54;83.30;102389.75;5075522;28;20429;-70
2021/03/30 01:20:05;;;;;;;0.40;0.30;;;;;;;8.54;83.02;102388.91;5075243;28;20422;-70
2021/03/30 01:23:07;;;;;;;0.50;0.40;;;;;;;8.48;83.17;102389.88;5074991;28;20986;-69
2021/03/30 01:25:36;;;;;;;0.40;0.30;;;;;;;8.40;83.12;102390.28;5042198;28;20456;-69
2021/03/30 01:28:08;;;;;;;1.90;0.40;;;;;;;8.33;83.33;102393.91;5073545;28;20858;-69
2021/03/30 01:30:36;;;;;;;0.40;0.30;;;;;;;8.35;84.07;102399.88;5073647;28;20430;-71
2021/03/30 01:33:08;;;;;;;0.50;0.50;;;;;;;8.31;85.63;102400.59;5073383;28;20942;-70
2021/03/30 01:35:37;;;;;;;0.60;0.60;;;;;;;8.33;85.33;102401.19;5073812;28;20480;-70
2021/03/30 01:38:03;;;;;;;1.53;0.77;;;;;;;8.17;86.88;102397.38;5073584;28;20440;-69
2021/03/30 01:40:33;;;;;;;0.40;0.30;;;;;;;8.19;87.14;102392.56;5073447;28;20449;-68
2021/03/30 01:43:01;;;;;;;0.40;0.30;;;;;;;8.21;87.54;102398.53;5073691;28;20444;-69
2021/03/30 01:45:28;;;;;;;1.63;0.70;;;;;;;8.26;87.98;102393.22;5073458;28;20784;-70
2021/03/30 01:47:57;;;;;;;0.40;0.30;;;;;;;8.25;87.92;102390.78;5073425;28;20481;-69
2021/03/30 01:50:24;;;;;;;0.57;0.43;;;;;;;8.20;88.36;102383.41;5073489;28;20866;-70
2021/03/30 01:52:52;;;;;;;0.70;0.60;;;;;;;8.20;88.42;102387.97;5073780;28;20457;-70
2021/03/30 01:55:19;;;;;;;0.60;0.57;;;;;;;8.14;88.81;102386.22;5073734;28;20452;-70
2021/03/30 01:57:47;;;;;;;0.63;0.50;;;;;;;8.13;88.63;102382.72;5073537;28;20441;-69
2021/03/30 02:00:15;;;;;;;1.03;0.47;;;;;;;8.19;88.46;102386.31;5073912;28;20445;-69
2021/03/30 02:02:43;;;;;;;1.07;0.50;;;;;;;8.21;87.93;102384.22;5073502;28;20465;-70
2021/03/30 02:05:12;;;;;;;0.67;0.60;;;;;;;8.18;86.88;102390.91;5072809;28;20466;-69
2021/03/30 02:07:40;;;;;;;2.00;0.77;;;;;;;8.13;86.33;102385.41;5073221;28;20492;-69
2021/03/30 02:10:11;;;;;;;0.40;0.27;;;;;;;8.09;85.69;102384.25;5073442;28;20460;-70
2021/03/30 02:12:42;;;;;;;0.40;0.30;;;;;;;8.07;85.68;102383.69;5072796;28;20485;-69
2021/03/30 02:15:11;;;;;;;0.40;0.33;;;;;;;8.01;84.48;102379.22;5073513;28;20438;-70
2021/03/30 02:17:40;;;;;;;0.70;0.60;;;;;;;7.92;84.17;102386.06;5073059;28;20444;-69
2021/03/30 02:20:12;;;;;;;0.70;0.47;;;;;;;7.84;85.02;102384.56;5072854;28;21016;-69
2021/03/30 02:22:46;;;;;;;0.60;0.50;;;;;;;7.80;85.03;102381.53;5073247;28;20554;-70
2021/03/30 02:25:12;;;;;;;1.93;0.87;;;;;;;7.74;84.71;102390.53;5073235;28;20441;-69
2021/03/30 02:27:41;;;;;;;0.93;0.83;;;;;;;7.68;85.46;102380.72;5073076;28;20481;-68
2021/03/30 02:32:53;;;;;;;0.80;0.57;;;;;;;7.60;87.83;102399.94;5073377;28;20799;-69
2021/03/30 02:35:23;;;;;;;8.93;0.80;;;;;;;7.56;88.12;102398.78;5074019;28;20453;-70
2021/03/30 02:37:50;;;;;;;0.40;0.30;;;;;;;7.56;88.72;102398.78;5073930;28;20492;-68
2021/03/30 02:40:21;;;;;;;2.17;0.80;;;;;;;7.50;89.42;102397.03;5073741;28;20436;-70
2021/03/30 02:42:48;;;;;;;0.50;0.30;;;;;;;7.50;89.46;102394.34;5073326;28;20802;-69
2021/03/30 02:45:17;;;;;;;1.00;0.50;;;;;;;7.61;88.62;102401.59;5073554;28;20440;-69
2021/03/30 02:47:45;;;;;;;0.40;0.30;;;;;;;7.53;89.29;102410.06;5072772;28;20489;-68
2021/03/30 02:50:12;;;;;;;0.60;0.40;;;;;;;7.48;89.75;102407.22;5073478;28;20824;-69
2021/03/30 02:52:39;;;;;;;2.20;0.77;;;;;;;7.48;89.53;102410.75;5073376;28;20468;-69
2021/03/30 02:55:07;;;;;;;4.80;1.13;;;;;;;7.44;89.59;102411.47;5074019;28;20437;-69
2021/03/30 02:57:33;;;;;;;0.77;0.77;;;;;;;7.52;89.34;102416.47;5073172;28;20460;-69
2021/03/30 03:00:01;;;;;;;0.70;0.70;;;;;;;7.52;88.76;102409.22;5073329;28;20452;-68
2021/03/30 03:02:28;;;;;;;2.10;1.13;;;;;;;7.47;88.13;102417.19;5075958;28;20460;-69
2021/03/30 03:04:54;;;;;;;0.47;0.33;;;;;;;7.46;87.19;102414.75;5076936;28;20446;-69
2021/03/30 03:07:21;;;;;;;0.43;0.40;;;;;;;7.41;86.40;102411.94;5076428;28;20452;-70
2021/03/30 03:09:48;;;;;;;1.13;1.13;;;;;;;7.37;86.13;102408.06;5077825;28;20445;-69
2021/03/30 03:12:17;;;;;;;0.40;0.30;;;;;;;7.32;85.89;102412.28;5077179;28;20483;-69
2021/03/30 03:14:46;;;;;;;0.50;0.40;;;;;;;7.24;85.72;102404.53;5077563;28;20449;-70
2021/03/30 03:17:12;;;;;;;0.40;0.30;;;;;;;7.15;86.25;102410.50;5077130;28;20438;-68
2021/03/30 03:19:39;;;;;;;0.40;0.30;;;;;;;7.09;86.12;102404.19;5077370;28;20441;-70
2021/03/30 03:22:06;;;;;;;0.50;0.40;;;;;;;7.09;86.59;102404.19;5077775;28;20462;-69
2021/03/30 03:24:33;;;;;;;0.40;0.30;;;;;;;7.08;86.97;102407.91;5077430;28;20452;-68
2021/03/30 03:27:00;;;;;;;0.50;0.40;;;;;;;7.17;87.41;102403.84;5077032;28;20469;-68
2021/03/30 03:29:26;;;;;;;1.63;0.67;;;;;;;7.18;87.83;102408.16;5076941;28;20481;-68
2021/03/30 03:31:52;;;;;;;1.47;0.80;;;;;;;7.21;88.06;102407.69;5076973;28;20457;-69
2021/03/30 03:34:18;;;;;;;0.60;0.50;;;;;;;7.13;88.85;102397.28;5077223;28;20522;-69
2021/03/30 03:36:46;;;;;;;0.40;0.30;;;;;;;7.05;88.95;102403.00;5076650;28;20970;-69
2021/03/30 03:39:14;;;;;;;0.40;0.30;;;;;;;6.98;89.56;102411.19;5077003;28;20441;-69
2021/03/30 03:41:41;;;;;;;0.67;0.63;;;;;;;6.89;89.76;102406.38;5076392;28;21014;-69
2021/03/30 03:44:09;;;;;;;0.50;0.40;;;;;;;6.97;89.88;102412.22;5077170;28;20459;-69
2021/03/30 03:46:36;;;;;;;0.40;0.40;;;;;;;7.00;89.59;102416.34;5077006;28;20434;-68
2021/03/30 03:49:03;;;;;;;1.33;0.40;;;;;;;7.01;89.61;102418.00;5076501;28;20484;-69
2021/03/30 03:51:33;;;;;;;0.40;0.30;;;;;;;6.84;90.15;102423.22;5076343;28;20970;-69
2021/03/30 03:54:02;;;;;;;1.70;0.60;;;;;;;6.76;90.34;102420.84;5076964;28;20442;-68
2021/03/30 03:56:32;;;;;;;1.90;1.80;;;;;;;6.69;90.18;102426.34;5076739;28;20967;-70
2021/03/30 03:59:05;;;;;;;0.70;0.57;;;;;;;6.74;88.96;102434.56;5076454;28;20455;-67
2021/03/30 04:01:44;;;;;;;0.77;0.77;;;;;;;6.69;88.10;102426.34;5075553;28;20545;-67
2021/03/30 04:04:18;;;;;;;0.80;0.73;;;;;;;6.66;87.99;102431.38;5075626;28;20425;-66
2021/03/30 04:06:49;;;;;;;0.40;0.30;;;;;;;6.71;86.84;102423.41;5075122;28;20923;-67
2021/03/30 04:09:18;;;;;;;0.73;0.60;;;;;;;6.66;86.40;102421.41;5075596;28;20488;-66
2021/03/30 04:11:46;;;;;;;0.43;0.40;;;;;;;6.47;86.89;102417.13;5074909;28;20477;-67
2021/03/30 04:14:12;;;;;;;0.90;0.90;;;;;;;6.42;87.54;102419.66;5075084;28;20450;-66
2021/03/30 04:16:39;;;;;;;0.67;0.57;;;;;;;6.50;87.08;102416.66;5075151;28;20479;-67
2021/03/30 04:19:09;;;;;;;0.83;0.83;;;;;;;6.53;86.92;102416.22;5075109;28;20535;-67
2021/03/30 04:21:36;;;;;;;2.00;1.90;;;;;;;6.44;87.85;102417.59;5075062;28;20457;-67
2021/03/30 04:24:02;;;;;;;0.40;0.30;;;;;;;6.51;88.33;102421.84;5075106;28;20441;-66
2021/03/30 04:26:28;;;;;;;0.40;0.30;;;;;;;6.45;89.50;102417.34;5074808;28;20456;-66
2021/03/30 04:28:54;;;;;;;0.70;0.50;;;;;;;6.51;89.66;102421.00;5074719;28;20477;-66
2021/03/30 04:31:20;;;;;;;0.63;0.63;;;;;;;6.47;89.90;102422.53;5074749;28;20490;-67
2021/03/30 04:33:47;;;;;;;0.60;0.50;;;;;;;6.42;90.24;102425.91;5074761;28;20455;-67
2021/03/30 04:36:13;;;;;;;0.40;0.33;;;;;;;6.50;90.07;102424.72;5075521;28;20507;-67
2021/03/30 04:38:39;;;;;;;0.60;0.60;;;;;;;6.43;90.67;102421.34;5075606;28;20456;-66
2021/03/30 04:41:07;;;;;;;0.40;0.30;;;;;;;6.48;90.62;102424.97;5075182;28;20864;-67
2021/03/30 04:43:34;;;;;;;1.30;1.00;;;;;;;6.47;90.33;102434.09;5075341;28;20490;-66
2021/03/30 04:46:00;;;;;;;0.50;0.50;;;;;;;6.41;90.81;102423.41;5075282;28;20442;-65
2021/03/30 04:48:26;;;;;;;1.13;1.13;;;;;;;6.38;90.90;102430.09;5074794;28;20485;-65
2021/03/30 04:50:54;;;;;;;0.43;0.33;;;;;;;6.30;91.11;102428.53;5074856;28;20465;-66
2021/03/30 04:53:20;;;;;;;0.50;0.40;;;;;;;6.39;90.23;102434.41;5075093;28;20445;-66
2021/03/30 04:55:46;;;;;;;0.50;0.43;;;;;;;6.38;88.96;102438.16;5074774;28;20494;-66
2021/03/30 04:58:12;;;;;;;0.50;0.33;;;;;;;6.35;88.32;102435.91;5074722;28;20433;-66
2021/03/30 05:00:38;;;;;;;0.77;0.50;;;;;;;6.36;88.02;102442.94;5074492;28;20444;-66
2021/03/30 05:03:04;;;;;;;0.60;0.53;;;;;;;6.37;88.06;102441.06;5074443;28;20445;-65
2021/03/30 05:05:30;;;;;;;3.60;1.00;;;;;;;6.35;87.95;102444.00;5074359;28;20837;-65
2021/03/30 05:07:57;;;;;;;0.50;0.40;;;;;;;6.30;87.70;102439.28;5074512;28;20507;-65
2021/03/30 05:10:23;;;;;;;0.40;0.30;;;;;;;6.37;87.56;102444.56;5074516;28;20441;-65
2021/03/30 05:12:49;;;;;;;0.70;0.60;;;;;;;6.39;87.06;102449.75;5074135;28;20454;-65
2021/03/30 05:15:15;;;;;;;0.60;0.50;;;;;;;6.34;87.01;102446.91;5074017;28;20444;-66
2021/03/30 05:17:41;;;;;;;0.50;0.40;;;;;;;6.35;87.88;102451.25;5075141;28;20441;-64
2021/03/30 05:20:08;;;;;;;0.50;0.50;;;;;;;6.41;88.58;102453.03;5075143;28;20801;-65
2021/03/30 05:22:34;;;;;;;0.97;0.70;;;;;;;6.49;88.85;102453.53;5074995;28;20511;-65
2021/03/30 05:25:02;;;;;;;0.40;0.30;;;;;;;6.53;89.41;102453.91;5074036;28;20445;-64
2021/03/30 05:27:28;;;;;;;0.70;0.40;;;;;;;6.45;90.73;102464.97;5074834;28;20445;-65
2021/03/30 05:29:54;;;;;;;1.03;0.70;;;;;;;6.51;90.49;102464.91;5074737;28;20485;-65
2021/03/30 05:32:20;;;;;;;0.80;0.77;;;;;;;6.62;90.41;102462.47;5074781;28;20461;-65
2021/03/30 05:34:47;;;;;;;0.90;0.40;;;;;;;6.66;90.61;102459.09;5074513;28;20445;-65
2021/03/30 05:37:13;;;;;;;1.33;0.67;;;;;;;6.71;91.11;102471.88;5074584;28;20446;-65
2021/03/30 05:39:39;;;;;;;0.40;0.30;;;;;;;6.79;91.34;102469.69;5074956;28;20512;-66
2021/03/30 05:42:07;;;;;;;0.50;0.40;;;;;;;6.87;91.10;102471.25;5074922;28;20492;-64
2021/03/30 05:44:33;;;;;;;0.60;0.60;;;;;;;6.89;91.71;102479.09;5074450;28;20781;-66
2021/03/30 05:47:10;;;;;;;0.83;0.83;;;;;;;7.00;91.63;102481.00;5075520;28;20433;-67
2021/03/30 05:49:38;;;;;;;1.07;0.90;;;;;;;7.08;90.77;102480.66;5073849;28;20469;-65
2021/03/30 05:52:12;;;;;;;1.17;0.60;;;;;;;7.16;89.80;102483.03;5074481;28;20474;-66
2021/03/30 05:54:41;;;;;;;0.40;0.30;;;;;;;7.25;88.75;102489.72;5074028;28;20798;-65
2021/03/30 05:57:12;;;;;;;0.63;0.63;;;;;;;7.28;88.44;102481.19;5074133;28;20449;-65
2021/03/30 05:59:39;;;;;;;0.70;0.50;;;;;;;7.34;88.46;102485.63;5073324;28;20440;-65
2021/03/30 06:02:10;;;;;;;2.40;0.77;;;;;;;7.42;88.11;102480.97;5094106;22;20994;-69
2021/03/30 06:04:37;;;;;;;0.50;0.47;;;;;;;7.49;88.02;102487.91;5053088;28;20439;-68
2021/03/30 06:07:03;;;;;;;1.47;1.07;;;;;;;7.56;87.97;102491.28;5052739;28;20874;-67
2021/03/30 06:09:29;;;;;;;1.60;0.40;;;;;;;7.67;87.60;102497.75;5053088;28;20477;-68
2021/03/30 06:11:56;;;;;;;0.40;0.30;;;;;;;7.75;87.51;102494.72;5053039;28;20490;-68
2021/03/30 06:14:38;;;;;;;0.60;0.50;;;;;;;7.85;88.26;102496.81;5053007;28;20438;-68
2021/03/30 06:17:06;;;;;;;1.53;0.50;;;;;;;7.99;88.96;102500.09;5062637;28;20916;-67
2021/03/30 06:19:46;;;;;;;0.50;0.30;;;;;;;8.19;88.40;102510.50;5053055;28;20851;-69
2021/03/30 06:22:13;;;;;;;1.90;1.50;;;;;;;8.43;86.44;102511.31;5052972;28;20462;-68
2021/03/30 06:24:38;;;;;;;1.50;0.67;;;;;;;8.66;84.59;102519.34;5052528;28;20856;-67
2021/03/30 06:27:27;;;;;;;2.00;0.70;;;;;;;9.03;79.72;102527.88;5052561;28;20441;-67
2021/03/30 06:29:56;;;;;;;5.23;1.17;;;;;;;9.28;78.67;102524.81;5052834;28;20466;-70
2021/03/30 06:32:24;;;;;;;1.43;1.27;;;;;;;9.49;77.74;102530.56;5052435;28;20836;-69
2021/03/30 06:34:57;;;;;;;0.40;0.40;;;;;;;9.73;76.17;102531.19;5052711;28;20446;-69
2021/03/30 06:37:32;;;;;;;0.50;0.50;;;;;;;9.97;74.56;102531.84;5055811;28;20439;-71
2021/03/30 06:40:00;;;;;;;2.43;1.03;;;;;;;10.20;73.13;102536.22;5056400;28;20918;-71
2021/03/30 06:42:32;;;;;;;0.87;0.50;;;;;;;10.38;72.15;102532.44;5056086;28;20980;-71
2021/03/30 06:44:59;;;;;;;0.50;0.40;;;;;;;10.51;71.41;102538.28;5056267;28;20431;-71
2021/03/30 06:47:26;;;;;;;0.93;0.93;;;;;;;10.67;68.27;102538.44;5056285;28;20962;-71
2021/03/30 06:49:54;;;;;;;1.70;0.93;;;;;;;10.82;67.33;102542.16;5056325;28;20482;-69
2021/03/30 06:52:25;;;;;;;2.30;0.60;;;;;;;10.96;67.60;102544.47;5055625;28;20466;-71
2021/03/30 06:54:54;;;;;;;1.63;0.87;;;;;;;11.08;67.25;102545.97;5055486;28;20956;-70
2021/03/30 06:57:35;;;;;;;6.30;1.50;;;;;;;11.23;66.35;102548.00;5056201;28;20434;-70
2021/03/30 07:00:06;;;;;;;1.00;0.87;;;;;;;11.40;65.00;102549.78;5056168;28;20462;-69
2021/03/30 07:02:32;;;;;;;4.00;2.43;;;;;;;11.66;62.08;102546.22;5055475;28;20508;-69
2021/03/30 07:04:58;;;;;;;0.70;0.63;;;;;;;11.83;62.11;102544.19;5055951;28;20457;-69
2021/03/30 07:07:27;;;;;;;3.43;1.20;;;;;;;12.03;61.40;102542.69;5055796;28;20466;-70
2021/03/30 07:09:53;;;;;;;1.90;1.80;;;;;;;12.17;61.35;102543.84;5055845;28;20986;-70
2021/03/30 07:12:22;;;;;;;2.33;1.03;;;;;;;12.30;61.51;102551.53;5055995;28;20466;-70
2021/03/30 07:14:48;;;;;;;2.03;0.90;;;;;;;12.38;60.02;102545.59;5055804;28;20935;-69
2021/03/30 07:17:23;;;;;;;1.87;1.50;;;;;;;12.51;59.85;102543.47;5055768;28;20963;-69
2021/03/30 07:19:51;;;;;;;1.43;0.73;;;;;;;12.66;57.68;102551.72;5055997;28;20517;-70
2021/03/30 07:22:22;;;;;;;2.60;1.07;;;;;;;12.78;57.98;102548.75;5060750;28;20469;-71
2021/03/30 07:24:55;;;;;;;1.17;0.60;;;;;;;12.96;56.74;102555.59;5063078;28;20430;-69
2021/03/30 07:27:28;;;;;;;4.37;1.43;;;;;;;13.11;55.71;102550.19;5060776;28;20517;-69
2021/03/30 07:29:56;;;;;;;1.43;1.20;;;;;;;13.25;55.54;102554.06;5056240;28;20520;-71
2021/03/30 07:32:29;;;;;;;1.37;1.10;;;;;;;13.34;55.40;102552.41;5056169;28;20458;-71
2021/03/30 07:34:59;;;;;;;1.60;1.50;;;;;;;13.46;55.58;102556.78;5063369;28;20435;-72
2021/03/30 07:37:31;;;;;;;3.27;1.83;;;;;;;13.58;55.93;102563.59;5064166;28;20450;-72
2021/03/30 07:39:59;;;;;;;0.77;0.77;;;;;;;13.68;54.63;102567.38;5055965;28;20521;-72
2021/03/30 07:42:26;;;;;;;0.90;0.90;;;;;;;13.78;54.78;102560.03;5055563;28;20462;-72
2021/03/30 07:44:53;;;;;;;4.63;1.10;;;;;;;13.89;53.51;102566.28;5055635;28;20525;-71
2021/03/30 07:47:20;;;;;;;1.23;1.13;;;;;;;13.90;54.49;102567.94;5055069;28;20541;-70
2021/03/30 07:49:50;;;;;;;0.83;0.63;;;;;;;14.05;54.14;102565.19;5055192;28;20489;-69
2021/03/30 07:52:18;;;;;;;1.83;1.53;;;;;;;14.20;53.89;102572.50;5055182;28;20461;-67
2021/03/30 07:55:19;;;;;;;3.70;1.03;;;;;;;14.31;52.87;102571.38;5060844;28;20537;-69
2021/03/30 07:58:07;;;;;;;1.80;1.30;;;;;;;14.44;52.77;102561.00;5055252;28;20513;-69
2021/03/30 08:01:00;;;;;;;1.70;1.57;;;;;;;14.58;52.41;102564.78;5055115;28;20496;-69
2021/03/30 08:03:31;;;;;;;2.47;1.80;;;;;;;14.61;53.10;102564.22;5007787;28;20462;-69
2021/03/30 08:06:08;;;;;;;3.80;2.03;;;;;;;14.74;52.85;102563.63;5054797;28;20803;-69
2021/03/30 08:08:55;;;;;;;1.30;1.10;;;;;;;14.87;51.76;102567.63;5054970;28;20470;-70
2021/03/30 08:11:53;;;;;;;1.33;1.03;;;;;;;14.96;52.01;102571.41;5054877;28;20492;-69
2021/03/30 08:14:39;;;;;;;2.13;0.90;;;;;;;15.06;51.62;102570.53;5054909;28;20427;-69
2021/03/30 08:17:08;;;;;;;1.93;1.73;;;;;;;15.13;51.43;102568.28;5055423;28;20438;-70
2021/03/30 08:19:34;;;;;;;3.60;1.43;;;;;;;15.20;50.83;102573.44;5054755;28;20442;-70
2021/03/30 08:22:04;;;;;;;1.60;1.00;;;;;;;15.31;50.98;102573.06;5054291;28;20532;-69
2021/03/30 08:24:54;;;;;;;2.13;0.80;;;;;;;15.43;51.16;102571.91;5054680;28;20422;-70
2021/03/30 08:27:39;;;;;;;1.17;1.00;;;;;;;15.50;50.55;102575.97;5054754;28;20480;-70
2021/03/30 08:30:15;;;;;;;3.33;1.43;;;;;;;15.62;49.96;102578.31;5054516;28;20481;-69
2021/03/30 08:32:45;;;;;;;0.83;0.80;;;;;;;15.65;50.03;102572.31;5054591;28;20493;-69
2021/03/30 08:35:13;;;;;;;3.63;1.63;;;;;;;15.67;50.15;102567.41;5054477;28;20442;-69
2021/03/30 08:37:41;;;;;;;5.43;2.20;;;;;;;15.74;50.20;102570.59;5054377;28;20450;-70
2021/03/30 08:40:41;;;;;;;1.33;1.23;;;;;;;15.83;48.42;102581.72;5054261;28;20449;-70
2021/03/30 08:43:21;;;;;;;2.80;1.00;;;;;;;15.95;48.18;102581.34;5054285;28;20437;-70
2021/03/30 08:45:59;;;;;;;1.27;1.17;;;;;;;16.03;47.64;102569.78;5054259;28;20445;-69
2021/03/30 08:48:31;;;;;;;0.77;0.70;;;;;;;16.07;48.44;102570.81;5053804;28;20913;-68
2021/03/30 08:50:57;;;;;;;3.27;1.27;;;;;;;16.10;48.59;102573.78;5054199;28;20472;-68
2021/03/30 08:53:29;;;;;;;1.50;1.30;;;;;;;16.15;48.92;102578.38;5053947;28;20454;-68
2021/03/30 08:55:55;;;;;;;0.80;0.67;;;;;;;16.24;49.74;102579.38;5054099;28;20434;-68
2021/03/30 08:58:25;;;;;;;6.30;1.47;;;;;;;16.34;48.88;102579.28;5053289;28;20871;-68
2021/03/30 09:00:52;;;;;;;2.73;1.37;;;;;;;16.47;49.73;102574.19;5053709;28;20465;-68
2021/03/30 09:03:25;;;;;;;1.33;1.13;;;;;;;16.54;49.33;102583.69;5053956;28;20500;-68
2021/03/30 09:05:51;;;;;;;9.30;1.80;;;;;;;16.56;48.41;102588.88;5053966;28;20480;-68
2021/03/30 09:08:37;;;;;;;1.33;0.83;;;;;;;16.62;49.26;102582.22;5053661;28;20493;-68
2021/03/30 09:11:17;;;;;;;2.30;1.13;;;;;;;16.65;49.64;102587.13;5053777;28;20496;-68
2021/03/30 09:13:57;;;;;;;0.70;0.70;;;;;;;16.74;49.97;102584.59;5054004;28;20438;-66
2021/03/30 09:16:22;;;;;;;3.70;1.40;;;;;;;16.79;50.40;102576.31;5053846;28;20433;-68
2021/03/30 09:18:48;;;;;;;3.13;1.60;;;;;;;16.82;49.67;102583.91;5053286;28;20458;-68
2021/03/30 09:21:19;;;;;;;0.97;0.80;;;;;;;16.95;50.68;102585.09;5053247;28;20524;-67
2021/03/30 09:23:46;;;;;;;2.00;1.27;;;;;;;17.04;50.15;102586.06;5053619;28;20450;-68
2021/03/30 09:26:13;;;;;;;1.77;1.00;;;;;;;17.10;50.51;102579.44;5053633;28;20489;-68
2021/03/30 09:28:43;;;;;;;2.97;1.30;;;;;;;17.20;51.22;102586.69;5053428;28;20482;-68
2021/03/30 09:31:10;;;;;;;0.90;0.87;;;;;;;17.31;52.72;102586.25;5055260;28;20470;-69
2021/03/30 09:33:36;;;;;;;2.53;1.47;;;;;;;17.38;52.63;102578.44;5056755;28;20996;-68
2021/03/30 09:36:02;;;;;;;3.50;1.50;;;;;;;17.46;51.83;102578.88;5053149;28;20438;-68
2021/03/30 09:38:30;;;;;;;1.53;1.03;;;;;;;17.45;51.30;102580.81;5053444;28;20492;-68
2021/03/30 09:40:57;;;;;;;1.67;1.10;;;;;;;17.51;51.33;102589.75;5053333;28;20537;-68
2021/03/30 09:43:23;;;;;;;1.37;1.23;;;;;;;17.56;52.27;102578.72;5053360;28;20438;-68
2021/03/30 09:45:49;;;;;;;3.23;1.40;;;;;;;17.55;52.71;102577.09;5052890;28;20977;-68
2021/03/30 09:48:17;;;;;;;4.00;2.20;;;;;;;17.64;52.20;102578.03;5052818;28;20956;-68
2021/03/30 09:50:45;;;;;;;1.97;1.77;;;;;;;17.64;52.65;102580.78;5053123;28;20437;-68
2021/03/30 09:53:11;;;;;;;2.13;1.60;;;;;;;17.63;53.58;102570.94;5052854;28;20426;-68
2021/03/30 09:55:39;;;;;;;2.20;1.20;;;;;;;17.72;53.59;102574.59;5053019;28;20449;-68
2021/03/30 09:58:08;;;;;;;2.90;1.03;;;;;;;17.84;55.48;102577.72;5052757;28;20863;-68
2021/03/30 10:00:37;;;;;;;2.83;1.43;;;;;;;17.84;55.01;102572.25;5052823;28;20438;-68
2021/03/30 10:03:05;;;;;;;3.10;2.03;;;;;;;17.97;55.06;102580.78;5052597;28;20952;-68
2021/03/30 10:05:36;;;;;;;2.70;1.43;;;;;;;18.07;55.45;102580.59;5052797;28;20970;-68
2021/03/30 10:08:02;;;;;;;2.33;1.17;;;;;;;18.14;53.04;102581.81;5052996;28;20504;-69
2021/03/30 10:10:42;;;;;;;1.90;1.23;;;;;;;18.22;52.11;102583.03;5054853;28;20446;-70
2021/03/30 10:13:23;;;;;;;2.00;1.13;;;;;;;18.28;53.92;102581.84;5057101;28;20446;-69
2021/03/30 10:15:50;;;;;;;3.33;1.80;;;;;;;18.31;54.65;102570.25;5056891;28;20428;-70
2021/03/30 10:18:17;;;;;;;3.00;1.50;;;;;;;18.41;53.65;102572.78;5057035;28;20442;-71
2021/03/30 10:20:45;;;;;;;1.07;0.90;;;;;;;18.53;51.69;102563.22;5056802;28;20446;-71
2021/03/30 10:23:16;;;;;;;3.63;1.50;;;;;;;18.57;52.31;102573.28;5056883;28;20445;-71
2021/03/30 10:25:43;;;;;;;2.50;1.37;;;;;;;18.63;53.25;102571.22;5056930;28;20810;-70
2021/03/30 10:28:10;;;;;;;3.23;1.67;;;;;;;18.64;52.62;102562.72;5056841;28;20533;-71
2021/03/30 10:30:41;;;;;;;4.27;1.57;;;;;;;18.75;52.07;102568.81;5056749;28;20452;-71
2021/03/30 10:33:10;;;;;;;2.73;1.63;;;;;;;18.78;51.87;102546.25;5056292;28;20847;-71
2021/03/30 10:35:36;;;;;;;1.20;0.60;;;;;;;18.85;52.16;102543.88;5056002;28;21015;-71
2021/03/30 10:38:03;;;;;;;3.17;1.83;;;;;;;18.90;49.53;102552.00;5056695;28;20449;-71
2021/03/30 10:40:32;;;;;;;3.90;1.93;;;;;;;18.98;48.61;102552.38;5056728;28;20446;-71
2021/03/30 10:43:16;;;;;;;9.43;2.30;;;;;;;19.03;49.01;102546.78;5056335;28;20466;-71
2021/03/30 10:45:42;;;;;;;3.83;1.60;;;;;;;19.11;48.68;102546.03;5057553;28;20430;-71
2021/03/30 10:48:09;;;;;;;2.10;1.37;;;;;;;19.27;48.95;102544.56;5059894;28;20930;-71
2021/03/30 10:50:35;;;;;;;4.83;2.33;;;;;;;19.44;48.11;102551.31;5061463;28;20435;-69
2021/03/30 10:53:01;;;;;;;1.67;1.57;;;;;;;19.56;48.04;102538.59;5056902;28;20566;-70
2021/03/30 10:55:27;;;;;;;1.80;1.07;;;;;;;19.75;47.76;102534.88;5056527;28;20521;-70
2021/03/30 10:57:54;;;;;;;2.00;1.33;;;;;;;19.79;46.96;102539.41;5057668;28;20446;-71
2021/03/30 11:00:21;;;;;;;1.80;1.70;;;;;;;19.84;47.22;102542.03;5060259;28;20438;-70
2021/03/30 11:02:47;;;;;;;3.57;1.83;;;;;;;19.94;47.09;102535.44;5065643;28;20470;-70
2021/03/30 11:05:15;;;;;;;2.43;1.60;;;;;;;19.95;45.92;102528.78;5064486;28;20446;-69
2021/03/30 11:07:41;;;;;;;5.03;2.30;;;;;;;19.94;46.53;102531.88;5056146;28;20440;-70
2021/03/30 11:10:10;;;;;;;4.03;2.00;;;;;;;20.00;46.99;102530.59;5055960;28;20477;-71
2021/03/30 11:12:36;;;;;;;1.20;1.00;;;;;;;20.09;47.31;102526.75;5055967;28;20473;-70
2021/03/30 11:15:02;;;;;;;2.90;1.40;;;;;;;20.19;46.01;102538.59;5055902;28;20446;-70
2021/03/30 11:17:29;;;;;;;2.33;1.30;;;;;;;20.29;45.22;102517.09;5055911;28;20446;-69
2021/03/30 11:19:55;;;;;;;0.80;0.80;;;;;;;20.37;45.67;102523.78;5055957;28;20445;-71
2021/03/30 11:22:21;;;;;;;2.40;1.20;;;;;;;20.83;44.59;102516.91;5055105;28;20821;-70
2021/03/30 11:24:47;;;;;;;2.57;1.30;;;;;;;21.56;43.08;102522.50;5055837;28;20797;-70
2021/03/30 11:27:13;;;;;;;3.17;1.60;;;;;;;22.55;41.71;102519.50;5055786;28;20916;-70
2021/03/30 11:29:43;;;;;;;2.20;1.50;;;;;;;23.27;39.91;102523.78;5055602;28;20481;-70
2021/03/30 11:32:27;;;;;;;2.13;1.40;;;;;;;24.27;39.27;102523.63;5055659;28;20549;-70
2021/03/30 11:34:58;;;;;;;2.97;1.40;;;;;;;24.82;37.46;102533.25;5055545;28;20470;-70
2021/03/30 11:37:48;;;;;;;3.60;1.90;;;;;;;24.56;37.20;102523.38;5055556;28;20431;-69
2021/03/30 11:40:15;;;;;;;2.73;1.77;;;;;;;25.23;37.25;102518.19;5055532;28;20423;-69
2021/03/30 11:42:41;;;;;;;2.40;1.23;;;;;;;26.20;36.34;102515.94;5055348;28;20466;-70